createdAt,value
2022-11-05T00:02:30.810Z,90.31
2022-11-05T00:05:17.660Z,89.93
2022-11-05T00:08:08.060Z,89.89
2022-11-05T00:10:38.374Z,90.21
2022-11-05T00:13:26.199Z,90.27
2022-11-05T00:16:11.603Z,90.81
2022-11-05T00:18:39.706Z,90.96
2022-11-05T00:21:29.403Z,90.86
2022-11-05T00:24:17.279Z,90.97
2022-11-05T00:26:48.244Z,90.94
2022-11-05T00:29:16.132Z,90.85
2022-11-05T00:31:43.957Z,91.51
2022-11-05T00:34:11.783Z,91.24
2022-11-05T00:36:41.150Z,90.89
2022-11-05T00:39:09.545Z,90.98
2022-11-05T00:41:37.424Z,91.08
2022-11-05T00:44:22.565Z,91.20
2022-11-05T00:47:10.342Z,91.79
2022-11-05T00:49:37.236Z,91.73
2022-11-05T00:52:20.364Z,91.65
2022-11-05T00:54:48.260Z,91.98
2022-11-05T00:57:16.022Z,92.33
2022-11-05T00:59:43.832Z,91.97
2022-11-05T01:02:11.678Z,91.74
2022-11-05T01:04:39.664Z,91.89
2022-11-05T01:07:08.923Z,91.83
2022-11-05T01:09:36.746Z,91.91
2022-11-05T01:12:04.887Z,92.04
2022-11-05T01:14:32.775Z,91.87
2022-11-05T01:17:00.644Z,91.85
2022-11-05T01:19:29.480Z,91.30
2022-11-05T01:21:57.353Z,91.67
2022-11-05T01:24:26.652Z,91.71
2022-11-05T01:26:55.171Z,91.73
2022-11-05T01:29:23.611Z,90.76
2022-11-05T01:31:51.477Z,90.26
2022-11-05T01:34:19.275Z,90.53
2022-11-05T01:36:47.053Z,90.96
2022-11-05T01:39:15.151Z,91.32
2022-11-05T01:41:44.344Z,91.12
2022-11-05T01:44:47.079Z,91.36
2022-11-05T01:47:26.183Z,91.16
2022-11-05T01:49:54.910Z,91.15
2022-11-05T01:52:24.197Z,91.41
2022-11-05T01:54:52.243Z,91.83
2022-11-05T01:57:21.737Z,92.08
2022-11-05T01:59:53.719Z,91.08
2022-11-05T02:02:22.062Z,91.69
2022-11-05T02:04:54.746Z,91.87
2022-11-05T02:07:24.172Z,92.08
2022-11-05T02:09:56.943Z,92.17
2022-11-05T02:12:26.707Z,92.28
2022-11-05T02:14:54.539Z,92.43
2022-11-05T02:17:34.167Z,92.29
2022-11-05T02:20:24.255Z,92.25
2022-11-05T02:23:13.645Z,92.30
2022-11-05T02:26:11.607Z,92.10
2022-11-05T02:29:08.470Z,92.45
2022-11-05T02:31:44.222Z,91.61
2022-11-05T02:34:23.289Z,91.47
2022-11-05T02:36:59.360Z,91.87
2022-11-05T02:39:39.135Z,91.51
2022-11-05T02:42:16.799Z,92.14
2022-11-05T02:44:54.605Z,92.53
2022-11-05T02:47:33.723Z,93.04
2022-11-05T02:50:12.107Z,92.73
2022-11-05T02:52:50.508Z,92.96
2022-11-05T02:55:27.148Z,92.01
2022-11-05T02:57:55.065Z,92.66
2022-11-05T03:00:42.162Z,92.99
2022-11-05T03:03:19.847Z,93.43
2022-11-05T03:05:59.798Z,93.28
2022-11-05T03:08:42.316Z,93.29
2022-11-05T03:11:16.458Z,93.35
2022-11-05T03:13:54.677Z,93.69
2022-11-05T03:16:32.785Z,93.68
2022-11-05T03:19:11.175Z,93.76
2022-11-05T03:21:47.415Z,93.72
2022-11-05T03:24:20.077Z,93.92
2022-11-05T03:26:53.087Z,93.74
2022-11-05T03:29:24.125Z,93.67
2022-11-05T03:31:56.531Z,93.99
2022-11-05T03:34:32.455Z,94.03
2022-11-05T03:37:03.661Z,94.35
2022-11-05T03:39:36.336Z,93.73
2022-11-05T03:42:07.641Z,94.07
2022-11-05T03:44:40.154Z,94.33
2022-11-05T03:47:12.926Z,94.19
2022-11-05T03:49:48.545Z,94.31
2022-11-05T03:52:19.677Z,94.10
2022-11-05T03:54:48.170Z,94.23
2022-11-05T03:57:22.017Z,94.38
2022-11-05T03:59:51.335Z,94.61
2022-11-05T04:02:21.106Z,94.34
2022-11-05T04:04:50.429Z,94.39
2022-11-05T04:07:35.938Z,93.95
2022-11-05T04:10:35.577Z,94.19
2022-11-05T04:13:20.968Z,94.01
2022-11-05T04:16:06.475Z,94.40
2022-11-05T04:18:34.284Z,94.66
2022-11-05T04:21:21.259Z,94.72
2022-11-05T04:24:06.504Z,94.63
2022-11-05T04:26:34.458Z,94.56
2022-11-05T04:29:19.977Z,93.71
2022-11-05T04:31:47.838Z,93.47
2022-11-05T04:34:16.342Z,94.82
2022-11-05T04:36:46.217Z,94.57
2022-11-05T04:39:14.068Z,94.97
2022-11-05T04:41:42.015Z,95.19
2022-11-05T04:44:09.981Z,95.78
2022-11-05T04:46:38.828Z,96.02
2022-11-05T04:49:06.618Z,96.38
2022-11-05T04:51:34.474Z,96.56
2022-11-05T04:54:03.734Z,96.44
2022-11-05T04:56:31.615Z,96.53
2022-11-05T04:58:59.756Z,95.58
2022-11-05T05:01:27.708Z,95.55
2022-11-05T05:03:56.211Z,95.42
2022-11-05T05:06:24.141Z,95.23
2022-11-05T05:08:52.604Z,95.40
2022-11-05T05:11:23.202Z,95.83
2022-11-05T05:13:51.571Z,96.13
2022-11-05T05:16:22.217Z,96.08
2022-11-05T05:18:50.839Z,95.97
2022-11-05T05:21:37.785Z,96.07
2022-11-05T05:24:08.690Z,96.08
2022-11-05T05:26:38.655Z,96.20
2022-11-05T05:29:07.119Z,96.34
2022-11-05T05:31:35.450Z,96.13
2022-11-05T05:34:03.723Z,96.59
2022-11-05T05:36:32.300Z,96.43
2022-11-05T05:39:00.223Z,96.29
2022-11-05T05:41:28.118Z,96.39
2022-11-05T05:43:57.321Z,96.41
2022-11-05T05:46:25.180Z,96.52
2022-11-05T05:48:53.615Z,96.99
2022-11-05T05:51:21.640Z,96.92
2022-11-05T05:53:50.156Z,97.40
2022-11-05T05:56:20.604Z,97.39
2022-11-05T05:58:48.899Z,97.34
2022-11-05T06:01:20.101Z,97.71
2022-11-05T06:03:49.200Z,97.78
2022-11-05T06:06:20.964Z,97.74
2022-11-05T06:08:49.621Z,97.71
2022-11-05T06:11:17.792Z,96.70
2022-11-05T06:13:45.725Z,96.65
2022-11-05T06:16:13.624Z,96.94
2022-11-05T06:18:42.839Z,96.74
2022-11-05T06:21:12.884Z,96.59
2022-11-05T06:23:42.601Z,95.54
2022-11-05T06:26:12.564Z,95.93
2022-11-05T06:28:42.101Z,96.22
2022-11-05T06:31:10.293Z,96.37
2022-11-05T06:33:38.487Z,96.87
2022-11-05T06:36:09.274Z,96.72
2022-11-05T06:38:38.251Z,96.92
2022-11-05T06:41:10.247Z,96.82
2022-11-05T06:43:38.734Z,96.82
2022-11-05T06:46:06.747Z,95.58
2022-11-05T06:48:34.901Z,95.97
2022-11-05T06:51:02.768Z,96.29
2022-11-05T06:53:32.559Z,96.61
2022-11-05T06:56:03.315Z,96.70
2022-11-05T06:58:32.124Z,96.88
2022-11-05T07:01:03.585Z,97.36
2022-11-05T07:03:31.992Z,96.59
2022-11-05T07:06:01.347Z,96.91
2022-11-05T07:08:33.551Z,97.15
2022-11-05T07:11:01.618Z,97.19
2022-11-05T07:13:29.452Z,97.48
2022-11-05T07:15:57.368Z,97.27
2022-11-05T07:18:25.663Z,96.74
2022-11-05T07:20:53.536Z,97.11
2022-11-05T07:23:21.498Z,96.84
2022-11-05T07:25:50.765Z,97.07
2022-11-05T07:28:19.059Z,97.20
2022-11-05T07:30:48.262Z,97.12
2022-11-05T07:33:16.175Z,97.02
2022-11-05T07:35:44.028Z,96.38
2022-11-05T07:38:12.342Z,96.38
2022-11-05T07:40:40.218Z,95.51
2022-11-05T07:43:16.956Z,95.30
2022-11-05T07:45:46.702Z,95.61
2022-11-05T07:48:14.494Z,95.45
2022-11-05T07:50:42.364Z,95.56
2022-11-05T07:53:13.090Z,95.53
2022-11-05T07:55:43.893Z,94.87
2022-11-05T07:58:13.459Z,94.81
2022-11-05T08:00:41.472Z,94.87
2022-11-05T08:03:13.667Z,94.85
2022-11-05T08:05:44.714Z,94.03
2022-11-05T08:08:14.016Z,94.01
2022-11-05T08:10:42.638Z,93.85
2022-11-05T08:13:11.966Z,93.87
2022-11-05T08:15:42.636Z,93.86
2022-11-05T08:18:13.235Z,94.18
2022-11-05T08:20:43.829Z,94.02
2022-11-05T08:23:12.688Z,93.68
2022-11-05T08:25:40.872Z,93.43
2022-11-05T08:28:11.458Z,93.24
2022-11-05T08:30:39.475Z,93.96
2022-11-05T08:33:11.693Z,93.51
2022-11-05T08:35:40.374Z,93.75
2022-11-05T08:38:09.462Z,93.96
2022-11-05T08:40:38.581Z,93.45
2022-11-05T08:43:08.200Z,93.91
2022-11-05T08:45:38.492Z,93.55
2022-11-05T08:48:10.147Z,93.18
2022-11-05T08:50:38.631Z,94.13
2022-11-05T08:53:07.130Z,94.95
2022-11-05T08:55:35.375Z,93.92
2022-11-05T08:58:04.765Z,94.06
2022-11-05T09:00:37.014Z,94.67
2022-11-05T09:03:06.455Z,94.85
2022-11-05T09:05:38.175Z,93.48
2022-11-05T09:08:24.375Z,94.04
2022-11-05T09:10:52.446Z,93.86
2022-11-05T09:13:22.193Z,93.43
2022-11-05T09:15:51.469Z,93.07
2022-11-05T09:18:20.701Z,93.71
2022-11-05T09:20:54.062Z,94.70
2022-11-05T09:23:21.869Z,95.31
2022-11-05T09:25:52.453Z,94.80
2022-11-05T09:28:22.760Z,95.10
2022-11-05T09:30:54.763Z,95.01
2022-11-05T09:33:24.582Z,94.52
2022-11-05T09:35:54.312Z,94.41
2022-11-05T09:38:34.636Z,94.90
2022-11-05T09:41:06.063Z,95.74
2022-11-05T09:44:06.397Z,95.38
2022-11-05T09:47:04.376Z,95.32
2022-11-05T09:53:09.073Z,94.88
2022-11-05T09:55:49.600Z,94.52
2022-11-05T09:59:31.676Z,95.03
2022-11-05T10:02:10.253Z,94.05
2022-11-05T10:05:10.366Z,94.56
2022-11-05T10:11:39.900Z,95.02
2022-11-05T10:14:51.578Z,95.26
2022-11-05T10:17:54.039Z,94.76
2022-11-05T10:20:32.611Z,94.03
2022-11-05T10:23:03.464Z,93.96
2022-11-05T10:25:39.792Z,94.73
2022-11-05T10:28:09.075Z,95.45
2022-11-05T10:30:38.540Z,94.59
2022-11-05T10:33:23.027Z,93.91
2022-11-05T10:35:56.360Z,92.85
2022-11-05T10:38:24.185Z,92.90
2022-11-05T10:41:01.587Z,93.12
2022-11-05T10:43:36.118Z,92.55
2022-11-05T10:46:20.332Z,91.46
2022-11-05T10:49:01.363Z,91.50
2022-11-05T10:51:44.579Z,91.72
2022-11-05T10:54:19.613Z,92.18
2022-11-05T10:56:47.832Z,91.98
2022-11-05T10:59:24.229Z,91.80
2022-11-05T11:02:01.006Z,90.78
2022-11-05T11:04:36.497Z,91.28
2022-11-05T11:07:06.152Z,91.16
2022-11-05T11:09:37.796Z,91.28
2022-11-05T11:12:09.272Z,91.09
2022-11-05T11:14:37.228Z,91.00
2022-11-05T11:17:27.904Z,91.34
2022-11-05T11:20:20.545Z,91.06
2022-11-05T11:23:00.909Z,91.99
2022-11-05T11:25:30.561Z,92.00
2022-11-05T11:28:04.300Z,92.51
2022-11-05T11:30:32.434Z,92.53
2022-11-05T11:33:07.547Z,93.24
2022-11-05T11:35:38.962Z,93.63
2022-11-05T11:38:15.102Z,92.70
2022-11-05T11:40:45.376Z,92.42
2022-11-05T11:43:25.661Z,92.50
2022-11-05T11:46:04.840Z,91.13
2022-11-05T11:48:37.363Z,90.14
2022-11-05T11:51:21.120Z,90.83
2022-11-05T11:53:50.437Z,91.61
2022-11-05T11:56:23.320Z,91.90
2022-11-05T11:58:53.233Z,92.48
2022-11-05T12:01:52.037Z,91.71
2022-11-05T12:04:45.950Z,91.96
2022-11-05T12:07:38.607Z,91.26
2022-11-05T12:10:28.391Z,91.78
2022-11-05T12:13:21.590Z,90.87
2022-11-05T12:15:52.940Z,90.46
2022-11-05T12:18:31.870Z,90.75
2022-11-05T12:21:09.039Z,91.17
2022-11-05T12:23:54.129Z,90.93
2022-11-05T12:26:30.790Z,90.02
2022-11-05T12:29:21.167Z,90.13
2022-11-05T12:32:00.772Z,90.05
2022-11-05T12:34:43.171Z,89.65
2022-11-05T12:37:24.831Z,88.49
2022-11-05T12:40:08.580Z,88.42
2022-11-05T12:42:52.985Z,89.01
2022-11-05T12:45:34.476Z,88.68
2022-11-05T12:48:24.683Z,88.75
2022-11-05T12:51:02.908Z,88.13
2022-11-05T12:53:54.821Z,87.70
2022-11-05T12:56:32.032Z,88.23
2022-11-05T12:59:04.474Z,88.56
2022-11-05T13:01:36.643Z,89.06
2022-11-05T13:04:12.355Z,88.81
2022-11-05T13:06:43.654Z,89.61
2022-11-05T13:09:19.213Z,89.14
2022-11-05T13:11:52.884Z,87.85
2022-11-05T13:14:38.387Z,88.33
2022-11-05T13:17:44.303Z,87.80
2022-11-05T13:20:47.544Z,86.22
2022-11-05T13:23:46.351Z,86.84
2022-11-05T13:26:30.331Z,86.76
2022-11-05T13:29:44.650Z,86.29
2022-11-05T13:36:20.668Z,86.03
2022-11-05T13:38:59.969Z,85.84
2022-11-05T13:41:46.716Z,86.51
2022-11-05T13:44:45.223Z,87.25
2022-11-05T13:47:33.843Z,87.30
2022-11-05T13:50:33.441Z,86.94
2022-11-05T13:53:32.943Z,83.60
2022-11-05T13:56:24.264Z,82.97
2022-11-05T13:59:37.742Z,82.12
2022-11-05T14:02:14.677Z,83.33
2022-11-05T14:04:47.740Z,83.04
2022-11-05T14:07:20.809Z,83.18
2022-11-05T14:10:05.775Z,82.28
2022-11-05T14:12:39.200Z,83.65
2022-11-05T14:15:18.248Z,83.27
2022-11-05T14:17:58.051Z,83.80
2022-11-05T14:20:45.903Z,84.77
2022-11-05T14:23:39.878Z,85.01
2022-11-05T14:26:21.003Z,85.16
2022-11-05T14:28:51.659Z,85.30
2022-11-05T14:31:54.605Z,85.52
2022-11-05T14:34:25.036Z,85.87
2022-11-05T14:37:23.291Z,85.57
2022-11-05T14:39:52.136Z,85.58
2022-11-05T14:42:26.143Z,86.00
2022-11-05T14:45:02.108Z,86.11
2022-11-05T14:47:34.595Z,86.34
2022-11-05T14:50:09.514Z,86.53
2022-11-05T14:52:39.203Z,86.44
2022-11-05T14:55:08.438Z,87.01
2022-11-05T14:58:03.189Z,87.12
2022-11-05T15:00:47.192Z,87.55
2022-11-05T15:03:47.938Z,87.89
2022-11-05T15:06:26.735Z,87.44
2022-11-05T15:09:20.335Z,87.91
2022-11-05T15:12:09.623Z,87.73
2022-11-05T15:14:42.476Z,87.99
2022-11-05T15:17:19.179Z,87.57
2022-11-05T15:19:48.199Z,88.00
2022-11-05T15:22:29.422Z,88.00
2022-11-05T15:24:57.862Z,88.30
2022-11-05T15:27:45.043Z,87.91
2022-11-05T15:30:17.623Z,88.16
2022-11-05T15:32:45.785Z,87.98
2022-11-05T15:35:31.513Z,87.96
2022-11-05T15:38:16.510Z,87.58
2022-11-05T15:40:45.085Z,87.61
2022-11-05T15:43:19.662Z,87.87
2022-11-05T15:46:05.525Z,86.80
2022-11-05T15:48:34.573Z,86.76
2022-11-05T15:51:02.816Z,86.83
2022-11-05T15:53:51.527Z,86.67
2022-11-05T15:56:28.998Z,87.12
2022-11-05T15:59:02.908Z,84.81
2022-11-05T16:01:34.401Z,84.95
2022-11-05T16:04:09.804Z,84.57
2022-11-05T16:06:40.315Z,85.33
2022-11-05T16:09:22.562Z,85.27
2022-11-05T16:11:54.614Z,85.64
2022-11-05T16:14:22.540Z,85.88
2022-11-05T16:16:50.413Z,86.51
2022-11-05T16:19:40.086Z,86.64
2022-11-05T16:22:09.112Z,86.73
2022-11-05T16:24:38.400Z,86.79
2022-11-05T16:27:06.777Z,86.92
2022-11-05T16:29:36.936Z,87.03
2022-11-05T16:32:15.153Z,87.12
2022-11-05T16:34:51.228Z,87.17
2022-11-05T16:37:23.290Z,87.55
2022-11-05T16:39:53.008Z,87.48
2022-11-05T16:42:41.627Z,87.76
2022-11-05T16:45:13.692Z,87.40
2022-11-05T16:47:42.311Z,87.05
2022-11-05T16:50:23.012Z,87.66
2022-11-05T16:52:51.668Z,87.99
2022-11-05T16:55:21.271Z,87.74
2022-11-05T16:57:52.083Z,87.90
2022-11-05T17:00:21.613Z,87.87
2022-11-05T17:02:49.752Z,87.23
2022-11-05T17:05:22.819Z,87.30
2022-11-05T17:07:50.727Z,87.52
2022-11-05T17:10:20.931Z,87.57
2022-11-05T17:12:49.648Z,87.96
2022-11-05T17:15:24.005Z,88.10
2022-11-05T17:17:53.374Z,88.02
2022-11-05T17:20:28.784Z,87.98
2022-11-05T17:22:57.619Z,88.21
2022-11-05T17:25:38.490Z,87.88
2022-11-05T17:28:12.577Z,87.81
2022-11-05T17:30:58.419Z,87.31
2022-11-05T17:33:59.387Z,86.84
2022-11-05T17:36:32.893Z,86.73
2022-11-05T17:39:05.570Z,86.96
2022-11-05T17:41:39.169Z,87.10
2022-11-05T17:44:25.153Z,87.37
2022-11-05T17:46:52.954Z,87.13
2022-11-05T17:49:21.060Z,86.97
2022-11-05T17:51:48.946Z,87.52
2022-11-05T17:54:17.531Z,87.12
2022-11-05T17:56:46.830Z,87.76
2022-11-05T17:59:14.895Z,88.01
2022-11-05T18:01:48.488Z,88.33
2022-11-05T18:04:16.608Z,87.99
2022-11-05T18:06:45.633Z,88.29
2022-11-05T18:09:14.008Z,88.29
2022-11-05T18:11:43.981Z,87.57
2022-11-05T18:14:21.302Z,88.68
2022-11-05T18:16:52.226Z,88.83
2022-11-05T18:19:20.239Z,88.62
2022-11-05T18:21:48.110Z,88.26
2022-11-05T18:24:18.109Z,88.79
2022-11-05T18:26:46.215Z,88.67
2022-11-05T18:29:15.465Z,88.81
2022-11-05T18:31:52.851Z,89.32
2022-11-05T18:34:20.896Z,88.83
2022-11-05T18:36:53.509Z,89.36
2022-11-05T18:39:25.159Z,89.56
2022-11-05T18:41:55.300Z,89.23
2022-11-05T18:44:28.944Z,87.94
2022-11-05T18:47:04.120Z,87.72
2022-11-05T18:49:36.235Z,87.88
2022-11-05T18:52:04.472Z,88.03
2022-11-05T18:54:32.804Z,88.96
2022-11-05T18:57:00.704Z,89.84
2022-11-05T18:59:38.758Z,88.79
2022-11-05T19:02:08.560Z,89.31
2022-11-05T19:04:37.393Z,88.80
2022-11-05T19:07:06.083Z,88.53
2022-11-05T19:09:34.836Z,89.12
2022-11-05T19:12:03.357Z,89.20
2022-11-05T19:14:32.757Z,90.18
2022-11-05T19:17:01.405Z,89.92
2022-11-05T19:19:29.384Z,90.26
2022-11-05T19:21:57.612Z,90.07
2022-11-05T19:24:28.591Z,90.30
2022-11-05T19:26:59.384Z,90.69
2022-11-05T19:29:27.435Z,90.80
2022-11-05T19:31:57.661Z,90.25
2022-11-05T19:34:25.691Z,90.39
2022-11-05T19:36:53.686Z,90.69
2022-11-05T19:39:23.426Z,89.98
2022-11-05T19:41:51.319Z,90.54
2022-11-05T19:44:19.239Z,89.81
2022-11-05T19:46:47.385Z,89.41
2022-11-05T19:49:16.658Z,90.24
2022-11-05T19:51:44.890Z,90.14
2022-11-05T19:54:12.967Z,89.61
2022-11-05T19:56:40.956Z,89.22
2022-11-05T19:59:13.071Z,89.29
2022-11-05T20:01:41.169Z,88.79
2022-11-05T20:04:12.016Z,89.43
2022-11-05T20:06:45.386Z,90.49
2022-11-05T20:09:21.647Z,90.23
2022-11-05T20:11:54.363Z,90.59
2022-11-05T20:14:23.087Z,90.36
2022-11-05T20:16:51.762Z,90.92
2022-11-05T20:19:22.518Z,90.83
2022-11-05T20:21:52.598Z,90.89
2022-11-05T20:24:25.253Z,91.05
2022-11-05T20:27:01.051Z,90.68
2022-11-05T20:29:39.919Z,91.14
2022-11-05T20:32:08.025Z,91.75
2022-11-05T20:34:36.144Z,91.42
2022-11-05T20:37:07.806Z,90.10
2022-11-05T20:39:35.743Z,91.81
2022-11-05T20:42:03.863Z,91.11
2022-11-05T20:44:31.961Z,91.29
2022-11-05T20:46:59.762Z,90.34
2022-11-05T20:49:27.585Z,90.45
2022-11-05T20:51:56.007Z,90.94
2022-11-05T20:54:25.466Z,90.75
2022-11-05T20:56:53.384Z,90.02
2022-11-05T20:59:21.468Z,91.09
2022-11-05T21:01:51.727Z,90.65
2022-11-05T21:04:20.800Z,90.49
2022-11-05T21:06:48.846Z,90.93
2022-11-05T21:09:16.664Z,91.21
2022-11-05T21:12:03.305Z,93.01
2022-11-05T21:14:33.085Z,93.04
2022-11-05T21:17:01.193Z,92.94
2022-11-05T21:19:29.540Z,91.80
2022-11-05T21:21:57.398Z,90.92
2022-11-05T21:24:26.815Z,90.06
2022-11-05T21:26:56.223Z,90.94
2022-11-05T21:29:24.260Z,90.49
2022-11-05T21:31:52.322Z,92.17
2022-11-05T21:34:23.166Z,91.47
2022-11-05T21:36:51.542Z,92.81
2022-11-05T21:39:19.638Z,91.82
2022-11-05T21:41:47.510Z,92.30
2022-11-05T21:44:16.757Z,92.40
2022-11-05T21:46:45.706Z,92.54
2022-11-05T21:49:14.539Z,92.57
2022-11-05T21:52:01.045Z,92.70
2022-11-05T21:54:47.066Z,93.27
2022-11-05T21:57:34.120Z,92.48
2022-11-05T22:00:05.957Z,91.41
2022-11-05T22:02:33.947Z,92.31
2022-11-05T22:05:04.177Z,91.83
2022-11-05T22:07:34.231Z,91.92
2022-11-05T22:10:03.253Z,92.64
2022-11-05T22:12:32.356Z,92.48
2022-11-05T22:15:00.499Z,93.36
2022-11-05T22:17:29.840Z,92.27
2022-11-05T22:19:57.725Z,93.21
2022-11-05T22:22:25.593Z,93.25
2022-11-05T22:24:53.793Z,92.81
2022-11-05T22:27:23.041Z,92.41
2022-11-05T22:29:51.288Z,93.20
2022-11-05T22:32:19.258Z,93.98
2022-11-05T22:34:48.876Z,92.17
2022-11-05T22:37:16.850Z,91.94
2022-11-05T22:39:44.862Z,92.66
2022-11-05T22:42:12.833Z,92.30
2022-11-05T22:44:40.829Z,92.88
2022-11-05T22:47:09.150Z,92.73
2022-11-05T22:49:37.009Z,93.09
2022-11-05T22:52:06.737Z,91.90
2022-11-05T22:54:39.052Z,92.75
2022-11-05T22:57:07.680Z,92.78
2022-11-05T22:59:35.526Z,92.44
2022-11-05T23:02:09.221Z,93.28
2022-11-05T23:04:38.254Z,92.69
2022-11-05T23:07:27.879Z,92.47
2022-11-05T23:10:13.431Z,92.41
2022-11-05T23:12:43.191Z,92.26
2022-11-05T23:15:32.466Z,91.21
2022-11-05T23:18:17.892Z,91.95
2022-11-05T23:21:03.067Z,92.62
2022-11-05T23:23:49.850Z,91.30
2022-11-05T23:26:49.823Z,91.95
2022-11-05T23:29:17.658Z,91.88
2022-11-05T23:32:02.958Z,91.06
2022-11-05T23:34:31.774Z,91.57
2022-11-05T23:37:17.252Z,91.70
2022-11-05T23:39:46.736Z,93.25
2022-11-05T23:42:32.035Z,92.20
2022-11-05T23:45:17.422Z,92.05
2022-11-05T23:48:02.934Z,92.05
2022-11-05T23:50:35.594Z,92.67
2022-11-05T23:53:07.999Z,92.39
2022-11-05T23:55:37.447Z,93.11
2022-11-05T23:58:05.347Z,91.85
